Time;durP1;ratioP1;P1;durP2;ratioP2;P2;SDS_P1;SDS_P2;PMS_P1;PMS_P2;Temp;Humidity;BMP_temperature;BMP_pressure;BME280_temperature;BME280_humidity;BME280_pressure;Samples;Min_cycle;Max_cycle;Signal;HPM_P1;HPM_P2
2022/08/20 00:02:24;;;;;;;9.20;8.33;;;23.90;99.90;;;;;;4999887;28;20578;-67
2022/08/20 00:04:50;;;;;;;11.10;10.00;;;23.90;99.90;;;;;;4994038;28;20202;-67
2022/08/20 00:07:16;;;;;;;11.27;10.23;;;23.80;99.90;;;;;;4984718;28;20187;-67
2022/08/20 00:09:43;;;;;;;11.00;10.10;;;23.80;99.90;;;;;;5013712;28;20513;-67
2022/08/20 00:12:10;;;;;;;10.73;9.80;;;23.70;99.90;;;;;;5014671;28;20756;-67
2022/08/20 00:14:37;;;;;;;11.67;10.57;;;23.70;99.90;;;;;;5014151;28;20888;-72
2022/08/20 00:17:04;;;;;;;12.87;11.67;;;23.60;99.90;;;;;;5013616;28;20425;-67
2022/08/20 00:19:30;;;;;;;11.53;10.50;;;23.60;99.90;;;;;;5014159;28;20500;-67
2022/08/20 00:21:56;;;;;;;11.57;10.47;;;23.60;99.90;;;;;;5013898;28;20949;-67
2022/08/20 00:24:22;;;;;;;10.73;9.83;;;23.50;99.90;;;;;;5006958;28;20525;-67
2022/08/20 00:26:48;;;;;;;12.10;11.00;;;23.50;99.90;;;;;;4994003;28;20419;-67
2022/08/20 00:29:15;;;;;;;11.37;10.17;;;23.50;99.90;;;;;;4994635;28;20481;-67
2022/08/20 00:31:41;;;;;;;9.40;8.50;;;23.50;99.90;;;;;;4994418;28;20246;-71
2022/08/20 00:34:07;;;;;;;9.10;8.30;;;23.40;99.90;;;;;;4994598;28;20427;-67
2022/08/20 00:36:32;;;;;;;9.13;8.23;;;23.40;99.90;;;;;;4994615;28;20250;-67
2022/08/20 00:38:58;;;;;;;8.83;7.93;;;23.40;99.90;;;;;;4993722;28;20494;-67
2022/08/20 00:41:26;;;;;;;9.03;8.13;;;23.40;99.90;;;;;;4995220;28;20175;-67
2022/08/20 00:44:09;;;;;;;8.80;8.10;;;23.40;99.90;;;;;;5012868;28;20185;-67
2022/08/20 00:46:36;;;;;;;8.37;7.50;;;23.30;99.90;;;;;;5010581;28;20437;-67
2022/08/20 00:49:04;;;;;;;8.30;7.07;;;23.30;99.90;;;;;;4993225;28;20533;-67
2022/08/20 00:51:44;;;;;;;9.03;8.27;;;23.30;99.90;;;;;;4994265;28;20414;-67
2022/08/20 00:54:19;;;;;;;9.43;8.43;;;23.30;99.90;;;;;;4994241;28;20501;-67
2022/08/20 00:56:49;;;;;;;9.40;8.60;;;23.30;99.90;;;;;;4993685;28;20411;-67
2022/08/20 00:59:21;;;;;;;9.43;8.57;;;23.30;99.90;;;;;;4997499;28;20429;-67
2022/08/20 01:01:48;;;;;;;7.67;6.97;;;23.30;99.90;;;;;;5001911;28;21013;-67
2022/08/20 01:04:14;;;;;;;7.60;6.90;;;23.20;99.90;;;;;;5013863;28;20857;-67
2022/08/20 01:06:41;;;;;;;4.90;4.60;;;23.20;99.90;;;;;;5012025;28;20442;-72
2022/08/20 01:09:07;;;;;;;4.87;4.30;;;23.20;99.90;;;;;;5010706;28;20282;-67
2022/08/20 01:11:34;;;;;;;5.07;4.73;;;23.20;99.90;;;;;;5013466;28;20909;-67
2022/08/20 01:17:05;;;;;;;2.67;2.50;;;23.00;99.90;;;;;;5011917;28;20480;-67
2022/08/20 01:19:37;;;;;;;2.70;2.50;;;23.00;99.90;;;;;;5012686;28;20511;-67
2022/08/20 01:24:50;;;;;;;3.27;3.07;;;22.90;99.90;;;;;;5012531;28;20422;-67
2022/08/20 01:27:17;;;;;;;3.17;2.97;;;22.80;99.90;;;;;;4995559;28;20422;-67
2022/08/20 01:29:43;;;;;;;3.40;3.20;;;22.80;99.90;;;;;;5004415;28;20435;-71
2022/08/20 01:32:09;;;;;;;3.50;3.30;;;22.70;99.90;;;;;;5004190;28;20456;-67
2022/08/20 01:34:35;;;;;;;3.93;3.70;;;22.70;99.90;;;;;;5012838;28;20468;-67
2022/08/20 01:37:00;;;;;;;3.80;3.60;;;22.70;99.90;;;;;;5012228;28;20442;-67
2022/08/20 01:39:31;;;;;;;4.10;3.90;;;22.70;99.90;;;;;;5013029;28;20261;-67
2022/08/20 01:42:19;;;;;;;4.40;4.20;;;22.60;99.90;;;;;;5012216;28;20159;-67
2022/08/20 01:44:46;;;;;;;4.27;3.97;;;22.60;99.90;;;;;;5012335;28;20912;-71
2022/08/20 01:47:26;;;;;;;4.03;3.83;;;22.60;99.90;;;;;;5012023;28;20841;-66
2022/08/20 01:49:59;;;;;;;4.20;3.90;;;22.60;99.90;;;;;;5011297;28;20476;-67
2022/08/20 01:53:03;;;;;;;7.20;4.50;;;22.50;99.90;;;;;;5012784;28;20429;-67
2022/08/20 01:55:30;;;;;;;5.47;4.97;;;22.50;99.90;;;;;;5012732;28;20422;-66
2022/08/20 01:57:56;;;;;;;5.70;5.33;;;22.50;99.90;;;;;;5010758;28;20472;-67
2022/08/20 02:00:22;;;;;;;6.70;6.20;;;22.50;99.90;;;;;;5011817;28;20433;-67
2022/08/20 02:02:49;;;;;;;7.03;6.53;;;22.50;99.90;;;;;;4993736;28;20510;-68
2022/08/20 02:05:16;;;;;;;8.10;7.43;;;22.50;99.90;;;;;;4992789;28;20402;-67
2022/08/20 02:07:42;;;;;;;9.20;8.40;;;22.50;99.90;;;;;;5007361;28;20542;-67
2022/08/20 02:10:10;;;;;;;9.90;9.10;;;22.50;99.90;;;;;;5011883;28;20912;-67
2022/08/20 02:12:38;;;;;;;10.83;10.03;;;22.50;99.90;;;;;;5012618;28;20506;-67
2022/08/20 02:15:07;;;;;;;11.20;10.20;;;22.50;99.90;;;;;;5011482;28;20414;-67
2022/08/20 02:17:33;;;;;;;11.47;10.40;;;22.60;99.90;;;;;;5000762;28;20525;-67
2022/08/20 02:20:09;;;;;;;12.70;11.50;;;22.60;99.90;;;;;;5002801;28;20438;-67
2022/08/20 02:22:51;;;;;;;13.20;12.00;;;22.60;99.90;;;;;;5012799;28;20513;-67
2022/08/20 02:25:21;;;;;;;13.60;12.17;;;22.60;99.90;;;;;;5011799;28;20440;-67
2022/08/20 02:27:50;;;;;;;13.40;12.10;;;22.60;99.90;;;;;;5011744;28;20531;-72
2022/08/20 02:30:25;;;;;;;13.80;12.60;;;22.60;99.90;;;;;;5013384;28;20409;-67
2022/08/20 02:32:51;;;;;;;14.77;13.23;;;22.60;99.90;;;;;;5014880;28;20441;-67
2022/08/20 02:35:17;;;;;;;14.60;13.10;;;22.70;99.90;;;;;;5004834;28;20775;-67
2022/08/20 02:37:44;;;;;;;15.13;13.63;;;22.70;99.90;;;;;;4996487;28;20507;-67
2022/08/20 02:40:14;;;;;;;14.47;12.97;;;22.70;99.90;;;;;;4978572;28;20419;-67
2022/08/20 02:42:41;;;;;;;13.00;11.83;;;22.70;99.90;;;;;;4996494;28;20411;-67
2022/08/20 02:45:13;;;;;;;14.17;12.80;;;22.70;99.90;;;;;;4995835;28;21018;-67
2022/08/20 02:47:40;;;;;;;15.27;13.87;;;22.70;99.90;;;;;;4996667;28;20878;-67
2022/08/20 02:50:06;;;;;;;15.23;13.83;;;22.70;99.90;;;;;;4996030;28;20423;-67
2022/08/20 02:52:32;;;;;;;15.67;14.20;;;22.70;99.90;;;;;;4996440;28;20910;-67
2022/08/20 02:54:58;;;;;;;16.80;15.20;;;22.70;99.90;;;;;;5006148;28;20440;-67
2022/08/20 02:57:23;;;;;;;16.20;14.50;;;22.70;99.90;;;;;;5015996;28;20217;-68
2022/08/20 02:59:52;;;;;;;14.70;13.40;;;22.70;99.90;;;;;;4997778;28;20639;-72
2022/08/20 03:02:18;;;;;;;17.67;16.07;;;22.70;99.90;;;;;;5014152;28;20301;-67
2022/08/20 03:04:44;;;;;;;14.73;13.40;;;22.70;99.90;;;;;;5015450;28;20823;-67
2022/08/20 03:07:10;;;;;;;17.80;16.10;;;22.70;99.90;;;;;;5015092;28;20422;-67
2022/08/20 03:09:37;;;;;;;17.20;15.50;;;22.70;99.90;;;;;;5014129;28;20293;-67
2022/08/20 03:12:05;;;;;;;16.83;15.33;;;22.70;99.90;;;;;;5014914;28;20475;-67
2022/08/20 03:14:31;;;;;;;16.87;15.27;;;22.70;99.90;;;;;;5014979;28;20780;-67
2022/08/20 03:16:57;;;;;;;16.77;15.20;;;22.70;99.90;;;;;;5012810;28;20428;-68
2022/08/20 03:19:23;;;;;;;18.83;16.97;;;22.70;99.90;;;;;;5015553;28;20425;-67
2022/08/20 03:21:49;;;;;;;16.47;14.87;;;22.70;99.90;;;;;;4948281;28;20414;-72
2022/08/20 03:24:14;;;;;;;18.10;16.30;;;22.70;99.90;;;;;;5015192;28;20182;-67
2022/08/20 03:26:42;;;;;;;17.00;15.40;;;22.70;99.90;;;;;;5015712;28;20659;-67
2022/08/20 03:29:08;;;;;;;18.23;16.43;;;22.70;99.90;;;;;;5014517;28;20945;-67
2022/08/20 03:31:34;;;;;;;16.87;15.17;;;22.70;99.90;;;;;;5003623;28;20565;-67
2022/08/20 03:33:59;;;;;;;18.57;16.73;;;22.70;99.90;;;;;;4994855;28;20518;-67
2022/08/20 03:36:27;;;;;;;19.70;17.67;;;22.70;99.90;;;;;;4995793;28;20206;-67
2022/08/20 03:38:54;;;;;;;19.90;17.90;;;22.70;99.90;;;;;;4994835;28;20179;-68
2022/08/20 03:41:20;;;;;;;17.53;15.93;;;22.70;99.90;;;;;;4994497;28;20423;-67
2022/08/20 03:43:45;;;;;;;19.13;17.30;;;22.70;99.90;;;;;;4995546;28;20410;-67
2022/08/20 03:46:11;;;;;;;20.67;18.77;;;22.70;99.90;;;;;;4995007;28;20175;-66
2022/08/20 03:48:37;;;;;;;28.83;18.97;;;22.70;99.90;;;;;;5003556;28;20294;-67
2022/08/20 03:51:03;;;;;;;19.07;17.13;;;22.70;99.90;;;;;;5013549;28;20175;-67
2022/08/20 03:53:30;;;;;;;19.73;17.73;;;22.70;99.90;;;;;;5013100;28;20444;-67
2022/08/20 03:55:59;;;;;;;19.50;17.60;;;22.70;99.90;;;;;;5013549;28;20440;-67
2022/08/20 03:58:27;;;;;;;20.13;18.10;;;22.70;99.90;;;;;;5014836;28;20472;-67
2022/08/20 04:00:54;;;;;;;19.93;18.13;;;22.70;99.90;;;;;;5004857;28;20430;-71
2022/08/20 04:03:21;;;;;;;20.90;18.80;;;22.70;99.90;;;;;;4994954;28;20477;-67
2022/08/20 04:05:48;;;;;;;19.63;17.70;;;22.70;99.90;;;;;;4994966;28;20430;-67
2022/08/20 04:08:28;;;;;;;20.83;18.73;;;22.70;99.90;;;;;;4994218;28;20541;-67
2022/08/20 04:10:58;;;;;;;20.63;18.63;;;22.60;99.90;;;;;;5013736;28;20438;-72
2022/08/20 04:13:26;;;;;;;21.43;19.27;;;22.70;99.90;;;;;;5014470;28;20398;-67
2022/08/20 04:15:54;;;;;;;22.80;20.50;;;22.60;99.90;;;;;;5014169;28;20418;-72
2022/08/20 04:18:23;;;;;;;22.73;20.37;;;22.60;99.90;;;;;;5014589;28;20445;-67
2022/08/20 04:20:50;;;;;;;20.90;18.80;;;22.60;99.90;;;;;;5014441;28;20488;-67
2022/08/20 04:23:16;;;;;;;22.83;20.50;;;22.60;99.90;;;;;;5013298;28;20422;-67
2022/08/20 04:25:43;;;;;;;20.73;18.70;;;22.50;99.90;;;;;;5013493;28;20449;-67
2022/08/20 04:28:23;;;;;;;23.03;20.83;;;22.50;99.90;;;;;;5013433;28;20468;-67
2022/08/20 04:30:51;;;;;;;23.20;21.00;;;22.50;99.90;;;;;;5006603;28;20922;-67
2022/08/20 04:33:18;;;;;;;26.20;22.77;;;22.50;99.90;;;;;;4994662;28;20423;-67
2022/08/20 04:35:44;;;;;;;23.43;20.87;;;22.50;99.90;;;;;;5012932;28;20430;-67
2022/08/20 04:38:14;;;;;;;21.97;19.67;;;22.50;99.90;;;;;;5012461;28;20445;-67
2022/08/20 04:40:58;;;;;;;24.60;21.93;;;22.50;99.90;;;;;;5012831;28;20444;-65
2022/08/20 04:43:30;;;;;;;23.40;21.10;;;22.50;99.90;;;;;;5014967;28;20424;-65
2022/08/20 04:45:57;;;;;;;22.93;20.53;;;22.50;99.90;;;;;;5011757;28;20454;-66
2022/08/20 04:48:25;;;;;;;30.67;27.60;;;22.50;99.90;;;;;;5013935;28;20515;-65
2022/08/20 04:50:52;;;;;;;31.40;28.10;;;22.60;99.90;;;;;;4996419;28;20430;-68
2022/08/20 04:53:20;;;;;;;25.37;20.47;;;22.60;99.90;;;;;;5010319;28;20429;-68
2022/08/20 04:55:46;;;;;;;23.10;20.60;;;22.60;99.90;;;;;;5014252;28;20407;-67
2022/08/20 04:58:19;;;;;;;23.27;20.80;;;22.60;99.90;;;;;;5013572;28;20429;-68
2022/08/20 05:00:51;;;;;;;23.13;20.80;;;22.50;99.90;;;;;;5010729;28;20175;-67
2022/08/20 05:03:17;;;;;;;22.23;19.60;;;22.50;99.90;;;;;;4995510;28;20461;-67
2022/08/20 05:05:45;;;;;;;16.47;14.80;;;22.50;99.90;;;;;;5014037;28;20505;-66
2022/08/20 05:08:11;;;;;;;16.97;15.30;;;22.50;99.90;;;;;;5007407;28;20494;-67
2022/08/20 05:10:39;;;;;;;19.60;17.57;;;22.70;99.90;;;;;;5007133;28;20423;-66
2022/08/20 05:13:06;;;;;;;21.73;19.43;;;22.80;99.90;;;;;;4950637;28;20484;-67
2022/08/20 05:15:32;;;;;;;23.07;20.87;;;23.00;99.90;;;;;;5001692;28;20417;-66
2022/08/20 05:18:00;;;;;;;22.83;20.37;;;23.10;99.90;;;;;;5008590;28;20422;-66
2022/08/20 05:20:29;;;;;;;22.40;20.00;;;23.20;99.90;;;;;;5013766;28;20424;-67
2022/08/20 05:22:55;;;;;;;22.03;19.83;;;23.20;99.90;;;;;;5013121;28;20413;-68
2022/08/20 05:25:21;;;;;;;22.20;19.90;;;23.30;99.90;;;;;;5013685;28;20414;-68
2022/08/20 05:27:46;;;;;;;22.30;19.93;;;23.40;99.90;;;;;;4962771;28;20298;-68
2022/08/20 05:30:12;;;;;;;146.87;120.00;;;23.50;99.90;;;;;;5008788;28;20517;-68
2022/08/20 05:32:39;;;;;;;215.77;175.43;;;23.60;99.90;;;;;;5006938;28;20175;-68
2022/08/20 05:35:08;;;;;;;41.90;37.40;;;23.70;99.90;;;;;;5004606;28;20229;-67
2022/08/20 05:37:40;;;;;;;98.77;83.43;;;23.70;99.90;;;;;;5008459;28;20432;-68
2022/08/20 05:40:13;;;;;;;31.60;28.30;;;23.80;99.90;;;;;;4995372;28;20434;-67
2022/08/20 05:42:39;;;;;;;24.10;21.60;;;23.80;99.90;;;;;;4993872;28;20437;-67
2022/08/20 05:45:07;;;;;;;22.40;20.10;;;23.90;99.90;;;;;;4992744;28;20414;-68
2022/08/20 05:47:33;;;;;;;21.73;19.57;;;23.90;99.90;;;;;;4992909;28;20493;-67
2022/08/20 05:50:00;;;;;;;21.53;19.33;;;23.90;99.90;;;;;;4992381;28;20451;-68
2022/08/20 05:52:28;;;;;;;21.37;18.13;;;24.00;99.90;;;;;;5002492;28;20183;-66
2022/08/20 05:54:54;;;;;;;20.27;18.30;;;24.00;99.90;;;;;;4961635;28;20786;-67
2022/08/20 05:57:20;;;;;;;21.53;18.93;;;24.10;99.90;;;;;;4994315;28;20514;-67
2022/08/20 05:59:46;;;;;;;21.40;19.27;;;24.20;99.90;;;;;;4960263;28;20513;-67
2022/08/20 06:04:57;;;;;;;19.13;17.27;;;24.30;99.90;;;;;;4993177;28;21012;-67
2022/08/20 06:07:23;;;;;;;19.03;17.23;;;24.30;99.90;;;;;;5008251;28;20488;-67
2022/08/20 06:09:49;;;;;;;18.93;17.03;;;24.40;99.90;;;;;;5011173;28;20190;-66
2022/08/20 06:12:15;;;;;;;19.57;17.67;;;24.40;99.90;;;;;;5011351;28;20187;-66
2022/08/20 06:14:41;;;;;;;15.70;14.00;;;24.50;99.90;;;;;;5012533;28;20406;-66
2022/08/20 06:17:11;;;;;;;15.93;14.33;;;24.50;99.90;;;;;;5011738;28;20409;-66
2022/08/20 06:19:38;;;;;;;16.97;15.37;;;24.40;99.90;;;;;;5012247;28;20441;-66
2022/08/20 06:22:04;;;;;;;15.33;13.90;;;24.50;99.90;;;;;;5011769;28;20412;-67
2022/08/20 06:24:30;;;;;;;15.60;14.00;;;24.50;99.90;;;;;;4995673;28;20949;-66
2022/08/20 06:27:00;;;;;;;17.63;15.97;;;24.50;99.90;;;;;;4992868;28;20446;-67
2022/08/20 06:29:27;;;;;;;16.30;14.70;;;24.50;99.90;;;;;;5008048;28;20566;-67
2022/08/20 06:31:53;;;;;;;16.60;15.00;;;24.50;99.90;;;;;;4986697;28;20473;-67
2022/08/20 06:34:18;;;;;;;16.10;14.47;;;24.50;99.90;;;;;;4986303;28;21115;-67
2022/08/20 06:36:45;;;;;;;16.50;14.90;;;24.50;99.90;;;;;;5001510;28;20816;-67
2022/08/20 06:39:14;;;;;;;17.60;15.90;;;24.50;99.90;;;;;;5011524;28;20226;-66
2022/08/20 06:41:40;;;;;;;17.67;16.00;;;24.50;99.90;;;;;;5012017;28;20894;-66
2022/08/20 06:44:07;;;;;;;14.27;12.93;;;24.50;99.90;;;;;;5011481;28;20424;-66
2022/08/20 06:46:34;;;;;;;14.00;12.70;;;24.50;99.90;;;;;;4916661;29;21008;-66
2022/08/20 06:49:02;;;;;;;13.17;11.97;;;24.50;99.90;;;;;;4929413;29;20485;-67
2022/08/20 06:51:28;;;;;;;14.50;13.00;;;24.50;99.90;;;;;;4930962;29;20445;-66
2022/08/20 06:53:55;;;;;;;14.23;12.93;;;24.50;99.90;;;;;;4932910;29;20461;-66
2022/08/20 06:56:20;;;;;;;14.23;13.03;;;24.50;99.90;;;;;;4929819;29;20444;-68
2022/08/20 06:58:46;;;;;;;12.80;11.77;;;24.50;99.90;;;;;;4930798;29;20433;-66
2022/08/20 07:01:12;;;;;;;12.80;11.70;;;24.50;99.90;;;;;;4920686;29;20229;-66
2022/08/20 07:03:41;;;;;;;13.73;12.43;;;24.50;99.90;;;;;;4919542;29;20686;-67
2022/08/20 07:06:07;;;;;;;13.90;12.60;;;24.50;99.90;;;;;;4927809;29;20457;-66
2022/08/20 07:08:34;;;;;;;12.93;11.73;;;24.50;99.90;;;;;;4932325;29;20468;-66
2022/08/20 07:11:00;;;;;;;373.57;333.10;;;24.50;99.90;;;;;;4925777;29;20417;-73
2022/08/20 07:13:27;;;;;;;32.47;29.03;;;24.50;99.90;;;;;;4925246;29;20430;-71
2022/08/20 07:15:54;;;;;;;22.80;20.50;;;24.50;99.90;;;;;;4926009;29;21149;-67
2022/08/20 07:18:21;;;;;;;16.13;14.53;;;24.50;99.90;;;;;;4987937;28;20430;-68
2022/08/20 07:20:47;;;;;;;17.30;15.63;;;24.50;99.90;;;;;;5001690;28;20422;-67
2022/08/20 07:23:13;;;;;;;17.47;15.67;;;24.40;99.90;;;;;;5001409;28;20441;-67
2022/08/20 07:25:40;;;;;;;16.50;15.00;;;24.40;99.90;;;;;;5011918;28;20410;-66
2022/08/20 07:28:18;;;;;;;17.00;15.30;;;24.50;99.90;;;;;;5005449;28;20230;-67
2022/08/20 07:33:31;;;;;;;13.93;12.63;;;24.40;99.90;;;;;;5003029;28;20449;-67
2022/08/20 07:35:59;;;;;;;14.10;12.70;;;24.40;99.90;;;;;;5003244;28;20414;-68
2022/08/20 07:38:27;;;;;;;14.87;13.27;;;24.50;99.90;;;;;;5011330;28;20437;-66
2022/08/20 07:40:55;;;;;;;23.37;21.27;;;24.40;99.90;;;;;;5003556;28;20433;-67
2022/08/20 07:43:24;;;;;;;24.70;22.07;;;24.40;99.90;;;;;;5011377;28;20448;-65
2022/08/20 07:45:53;;;;;;;16.50;14.53;;;24.40;99.90;;;;;;5014926;28;20421;-66
2022/08/20 07:48:19;;;;;;;14.93;13.57;;;24.30;99.90;;;;;;5014829;28;20472;-66
2022/08/20 07:50:45;;;;;;;13.13;11.93;;;24.30;99.90;;;;;;5015683;28;20406;-67
2022/08/20 07:53:11;;;;;;;13.57;12.27;;;24.30;99.90;;;;;;5013615;28;20429;-67
2022/08/20 07:55:36;;;;;;;12.53;11.37;;;24.30;99.90;;;;;;5015634;28;20763;-67
2022/08/20 07:58:09;;;;;;;11.53;10.60;;;24.40;99.90;;;;;;5014758;28;20167;-67
2022/08/20 08:00:35;;;;;;;12.70;11.07;;;24.40;99.90;;;;;;5015019;28;20185;-65
2022/08/20 08:03:01;;;;;;;11.40;10.40;;;24.40;99.90;;;;;;5012453;28;20501;-66
2022/08/20 08:05:28;;;;;;;12.40;11.30;;;24.50;99.90;;;;;;5013340;28;20462;-66
2022/08/20 08:07:54;;;;;;;13.30;12.10;;;24.50;99.90;;;;;;5010904;28;20569;-66
2022/08/20 08:10:23;;;;;;;15.00;13.40;;;24.50;99.90;;;;;;4994822;28;20458;-66
2022/08/20 08:12:53;;;;;;;15.77;14.20;;;24.60;99.90;;;;;;5012070;28;20430;-66
2022/08/20 08:15:27;;;;;;;14.40;13.10;;;24.50;99.90;;;;;;5012984;28;20445;-66
2022/08/20 08:17:57;;;;;;;14.70;13.40;;;24.50;99.90;;;;;;5012365;28;20521;-66
2022/08/20 08:20:22;;;;;;;12.13;11.07;;;24.30;99.90;;;;;;5013614;28;20452;-66
2022/08/20 08:22:49;;;;;;;12.23;11.03;;;24.30;99.90;;;;;;5010203;28;20430;-65
2022/08/20 08:25:16;;;;;;;14.07;12.87;;;24.30;99.90;;;;;;5014217;28;20410;-66
2022/08/20 08:27:42;;;;;;;14.47;12.97;;;24.30;99.90;;;;;;5013692;28;20410;-66
2022/08/20 08:30:09;;;;;;;13.30;11.90;;;24.30;99.90;;;;;;5014058;28;20429;-65
2022/08/20 08:33:26;;;;;;;13.30;12.00;;;24.30;99.90;;;;;;5014672;28;20429;-65
2022/08/20 08:35:22;;;;;;;13.60;12.40;;;24.30;99.90;;;;;;5014161;28;20652;-65
2022/08/20 08:37:48;;;;;;;14.37;12.63;;;24.10;99.90;;;;;;5014315;28;20402;-65
2022/08/20 08:40:14;;;;;;;41.40;18.90;;;24.00;99.90;;;;;;4994802;28;20198;-66
2022/08/20 08:42:44;;;;;;;21.40;14.77;;;24.00;99.90;;;;;;4959243;28;20187;-65
2022/08/20 08:45:14;;;;;;;14.87;13.17;;;24.10;99.90;;;;;;5009104;28;20202;-64
2022/08/20 08:47:40;;;;;;;20.27;12.07;;;24.20;99.90;;;;;;5012770;28;20843;-64
2022/08/20 08:50:24;;;;;;;12.97;11.67;;;24.30;99.90;;;;;;5012026;28;20548;-66
2022/08/20 08:52:56;;;;;;;12.40;11.30;;;24.50;99.90;;;;;;5014488;28;20661;-64
2022/08/20 08:55:22;;;;;;;11.47;10.47;;;24.50;99.90;;;;;;5013463;28;20390;-65
2022/08/20 08:57:48;;;;;;;17.20;12.03;;;24.50;99.90;;;;;;5009562;28;20433;-66
2022/08/20 09:00:20;;;;;;;12.97;11.80;;;24.50;99.90;;;;;;5011267;28;20183;-65
2022/08/20 09:03:38;;;;;;;11.77;10.80;;;24.50;99.90;;;;;;5013756;28;20474;-64
2022/08/20 09:06:06;;;;;;;10.03;9.03;;;24.60;99.90;;;;;;5009929;28;20463;-69
2022/08/20 09:08:46;;;;;;;14.37;13.07;;;24.60;99.90;;;;;;5007307;28;20490;-64
2022/08/20 09:11:13;;;;;;;10.57;9.67;;;24.60;99.90;;;;;;4993747;28;20399;-64
2022/08/20 09:13:39;;;;;;;12.10;11.10;;;24.70;99.90;;;;;;4994408;28;20415;-64
2022/08/20 09:16:05;;;;;;;11.17;10.27;;;24.70;99.90;;;;;;4993658;28;20411;-68
2022/08/20 09:18:31;;;;;;;13.90;12.80;;;24.80;99.90;;;;;;4994144;28;20411;-65
2022/08/20 09:20:57;;;;;;;14.80;13.37;;;24.80;99.90;;;;;;4993932;28;20418;-64
2022/08/20 09:23:23;;;;;;;101.53;91.23;;;24.50;99.90;;;;;;4991646;28;20510;-64
2022/08/20 09:25:50;;;;;;;104.80;86.87;;;24.50;99.90;;;;;;4993840;28;20647;-64
2022/08/20 09:28:16;;;;;;;47.60;42.60;;;24.40;99.90;;;;;;4993273;28;20215;-64
2022/08/20 09:30:41;;;;;;;17.77;16.07;;;24.30;99.90;;;;;;4997315;28;20426;-64
2022/08/20 09:33:07;;;;;;;15.77;14.37;;;24.20;99.90;;;;;;5012080;28;20198;-65
2022/08/20 09:35:33;;;;;;;14.50;13.20;;;24.30;99.90;;;;;;5013629;28;20548;-64
2022/08/20 09:37:59;;;;;;;14.50;13.30;;;24.50;99.90;;;;;;5013505;28;20179;-64
2022/08/20 09:40:25;;;;;;;18.67;16.97;;;24.70;99.90;;;;;;5010035;28;20552;-65
2022/08/20 09:42:52;;;;;;;14.40;13.10;;;24.50;99.90;;;;;;5009726;28;20422;-65
2022/08/20 09:45:18;;;;;;;15.80;14.50;;;24.50;99.90;;;;;;5009188;28;20208;-65
2022/08/20 09:47:44;;;;;;;17.33;15.73;;;24.70;99.90;;;;;;5009652;28;20410;-66
2022/08/20 09:50:10;;;;;;;12.07;11.07;;;24.70;99.90;;;;;;5010746;28;20411;-64
2022/08/20 09:52:43;;;;;;;14.27;13.10;;;24.80;99.90;;;;;;5011971;28;20793;-64
2022/08/20 09:55:17;;;;;;;16.10;14.70;;;24.70;99.90;;;;;;5011218;28;20553;-64
2022/08/20 09:57:43;;;;;;;15.53;14.20;;;24.60;99.90;;;;;;4995624;28;20781;-64
2022/08/20 10:00:12;;;;;;;12.73;11.73;;;24.60;99.90;;;;;;5012572;28;20406;-65
2022/08/20 10:02:39;;;;;;;17.27;15.73;;;24.60;99.90;;;;;;5012907;28;20750;-64
2022/08/20 10:05:06;;;;;;;17.43;15.87;;;24.60;99.90;;;;;;5013060;28;20418;-64
2022/08/20 10:07:33;;;;;;;14.57;13.33;;;24.60;99.90;;;;;;5013199;28;20426;-64
2022/08/20 10:10:00;;;;;;;21.50;19.40;;;24.70;99.90;;;;;;5012960;28;20437;-65
2022/08/20 10:12:26;;;;;;;15.27;14.00;;;24.80;99.90;;;;;;4961716;28;20409;-64
2022/08/20 10:14:51;;;;;;;18.63;16.93;;;24.90;99.90;;;;;;5012941;28;20418;-64
2022/08/20 10:17:17;;;;;;;19.53;17.63;;;25.10;99.90;;;;;;5012375;28;20537;-64
2022/08/20 10:19:43;;;;;;;17.63;16.03;;;25.20;99.90;;;;;;4995217;28;20252;-64
2022/08/20 10:22:08;;;;;;;30.87;27.73;;;25.20;99.90;;;;;;4994662;28;20171;-66
2022/08/20 10:24:34;;;;;;;19.27;17.37;;;25.10;99.90;;;;;;4994566;28;20543;-64
2022/08/20 10:27:01;;;;;;;21.27;19.17;;;25.00;99.90;;;;;;5012837;28;20183;-64
2022/08/20 10:29:28;;;;;;;27.30;24.60;;;24.90;99.90;;;;;;5012129;28;20463;-64
2022/08/20 10:31:55;;;;;;;32.40;29.03;;;24.80;99.90;;;;;;5012785;28;20517;-64
2022/08/20 10:34:24;;;;;;;25.67;23.23;;;24.60;99.90;;;;;;4994539;28;20461;-64
2022/08/20 10:36:50;;;;;;;23.70;21.50;;;24.60;99.90;;;;;;5012466;28;20782;-64
2022/08/20 10:39:16;;;;;;;25.67;23.17;;;24.50;99.90;;;;;;5011827;28;20472;-64
2022/08/20 10:41:42;;;;;;;34.53;31.03;;;24.50;99.90;;;;;;5012605;28;20186;-64
2022/08/20 10:44:08;;;;;;;33.53;30.03;;;24.40;99.90;;;;;;5012602;28;20182;-64
2022/08/20 10:46:34;;;;;;;28.23;25.30;;;24.30;99.90;;;;;;4994403;28;20589;-64
2022/08/20 10:49:00;;;;;;;26.97;24.30;;;24.20;99.90;;;;;;5012623;28;20462;-64
2022/08/20 10:51:25;;;;;;;28.37;25.57;;;24.30;99.90;;;;;;5013818;28;20436;-64
2022/08/20 10:53:51;;;;;;;28.87;26.07;;;24.40;99.90;;;;;;5015963;28;20198;-64
2022/08/20 10:56:17;;;;;;;33.13;29.70;;;24.60;99.90;;;;;;5015852;28;20233;-64
2022/08/20 10:58:42;;;;;;;33.23;27.97;;;24.60;99.90;;;;;;5016398;28;20191;-64
2022/08/20 11:01:08;;;;;;;32.27;28.30;;;24.70;99.90;;;;;;4998488;28;20218;-64
2022/08/20 11:03:34;;;;;;;27.87;25.17;;;24.70;99.90;;;;;;4997589;28;20231;-63
2022/08/20 11:06:00;;;;;;;29.17;26.30;;;24.80;99.90;;;;;;4998773;28;20202;-64
2022/08/20 11:08:26;;;;;;;29.33;26.20;;;24.90;99.90;;;;;;5015548;28;20540;-64
2022/08/20 11:10:52;;;;;;;27.90;24.97;;;24.90;99.90;;;;;;5016076;28;20500;-64
2022/08/20 11:13:18;;;;;;;26.70;24.03;;;25.00;99.90;;;;;;5015258;28;20623;-64
2022/08/20 11:15:44;;;;;;;25.93;23.40;;;25.20;99.90;;;;;;5016088;28;20684;-64
2022/08/20 11:18:12;;;;;;;26.40;23.73;;;25.30;99.90;;;;;;5015783;28;20709;-64
2022/08/20 11:20:38;;;;;;;25.90;23.50;;;25.50;99.90;;;;;;5014689;28;20433;-64
2022/08/20 11:23:04;;;;;;;25.97;23.57;;;25.60;99.90;;;;;;4949087;28;20398;-64
2022/08/20 11:25:30;;;;;;;24.33;22.03;;;25.60;99.90;;;;;;5015268;28;20793;-64
2022/08/20 11:27:57;;;;;;;23.03;20.70;;;25.60;99.90;;;;;;5015597;28;20571;-64
2022/08/20 11:30:29;;;;;;;23.33;21.13;;;25.70;99.90;;;;;;5015213;28;20441;-64
2022/08/20 11:32:56;;;;;;;23.23;20.90;;;25.80;99.90;;;;;;5015778;28;20453;-64
2022/08/20 11:35:22;;;;;;;21.40;19.40;;;25.90;99.00;;;;;;5015077;28;20472;-64
2022/08/20 11:37:50;;;;;;;20.23;18.43;;;26.00;99.20;;;;;;4998084;28;20417;-64
2022/08/20 11:40:15;;;;;;;21.27;19.10;;;26.00;98.80;;;;;;5015091;28;20417;-65
2022/08/20 11:42:41;;;;;;;22.27;19.73;;;26.10;98.80;;;;;;5015260;28;20418;-64
2022/08/20 11:45:07;;;;;;;19.60;17.80;;;26.10;97.90;;;;;;5015567;28;20179;-64
2022/08/20 11:47:35;;;;;;;19.20;17.43;;;26.00;97.90;;;;;;5011573;28;20175;-65
2022/08/20 11:50:13;;;;;;;20.27;18.27;;;26.00;98.70;;;;;;5003616;28;20517;-66
2022/08/20 11:52:38;;;;;;;17.90;16.20;;;25.90;98.30;;;;;;4992413;28;20391;-67
2022/08/20 11:55:06;;;;;;;18.53;16.83;;;26.00;98.00;;;;;;4992123;28;20415;-64
2022/08/20 11:57:34;;;;;;;20.97;18.97;;;26.00;98.20;;;;;;5001941;28;20171;-64
2022/08/20 12:00:04;;;;;;;23.57;21.33;;;26.00;97.40;;;;;;5003920;28;20426;-65
2022/08/20 12:02:29;;;;;;;18.90;17.20;;;25.90;96.70;;;;;;5004697;28;20462;-64
2022/08/20 12:04:55;;;;;;;18.63;16.93;;;25.80;97.80;;;;;;4999503;28;20758;-63
2022/08/20 12:07:24;;;;;;;19.70;17.87;;;25.80;97.60;;;;;;4995078;28;20176;-64
2022/08/20 12:09:50;;;;;;;78.63;65.10;;;25.80;97.90;;;;;;4995554;28;20208;-64
2022/08/20 12:12:18;;;;;;;24.80;22.50;;;25.80;97.70;;;;;;5003864;28;20521;-65
2022/08/20 12:14:43;;;;;;;73.33;66.03;;;25.80;97.80;;;;;;5014405;28;20426;-64
2022/08/20 12:17:13;;;;;;;23.10;21.10;;;25.80;96.80;;;;;;5014992;28;20771;-64
2022/08/20 12:19:41;;;;;;;22.07;19.97;;;25.80;97.30;;;;;;5007769;28;20198;-64
2022/08/20 12:22:07;;;;;;;19.37;17.40;;;25.80;97.10;;;;;;5008825;28;20425;-66
2022/08/20 12:24:33;;;;;;;20.90;19.00;;;25.90;96.80;;;;;;5013681;28;20434;-64
2022/08/20 12:27:19;;;;;;;19.03;17.27;;;25.80;97.10;;;;;;5011782;28;20851;-64
2022/08/20 12:29:47;;;;;;;16.93;15.43;;;25.80;97.30;;;;;;5013600;28;20820;-64
2022/08/20 12:32:14;;;;;;;16.00;14.40;;;25.90;96.80;;;;;;5014193;28;20814;-64
2022/08/20 12:34:41;;;;;;;16.00;14.50;;;25.90;96.20;;;;;;5013954;28;20418;-64
2022/08/20 12:37:25;;;;;;;16.47;14.77;;;25.90;96.60;;;;;;5013913;28;20421;-65
2022/08/20 12:39:54;;;;;;;16.17;14.77;;;25.80;96.30;;;;;;5014466;28;20456;-64
2022/08/20 12:42:20;;;;;;;15.67;14.27;;;25.90;96.70;;;;;;5013846;28;20506;-65
2022/08/20 12:44:46;;;;;;;14.03;12.77;;;25.90;96.00;;;;;;5014391;28;20825;-64